sensor_id;sensor_type;location;lat;lon;timestamp;pressure;altitude;pressure_sealevel;temperature;humidity
66945;BME280;53853;51.982;5.928;2023-06-01T00:01:50;102299.16;;;12.78;68.87
66945;BME280;53853;51.982;5.928;2023-06-01T00:04:20;102298.16;;;12.79;68.81
66945;BME280;53853;51.982;5.928;2023-06-01T00:06:50;102291.38;;;12.75;69.05
66945;BME280;53853;51.982;5.928;2023-06-01T00:09:20;102285.91;;;12.77;69.30
66945;BME280;53853;51.982;5.928;2023-06-01T00:11:49;102292.22;;;12.76;69.24
66945;BME280;53853;51.982;5.928;2023-06-01T00:14:22;102287.69;;;12.76;69.09
66945;BME280;53853;51.982;5.928;2023-06-01T00:16:52;102283.34;;;12.75;69.22
66945;BME280;53853;51.982;5.928;2023-06-01T00:19:22;102288.81;;;12.74;69.55
66945;BME280;53853;51.982;5.928;2023-06-01T00:21:54;102285.16;;;12.75;69.31
66945;BME280;53853;51.982;5.928;2023-06-01T00:24:24;102282.34;;;12.76;69.68
66945;BME280;53853;51.982;5.928;2023-06-01T00:26:54;102283.47;;;12.74;69.65
66945;BME280;53853;51.982;5.928;2023-06-01T00:29:27;102285.16;;;12.75;69.35
66945;BME280;53853;51.982;5.928;2023-06-01T00:31:57;102282.59;;;12.73;70.00
66945;BME280;53853;51.982;5.928;2023-06-01T00:34:27;102283.34;;;12.75;69.45
66945;BME280;53853;51.982;5.928;2023-06-01T00:36:57;102285.03;;;12.76;69.38
66945;BME280;53853;51.982;5.928;2023-06-01T00:39:27;102283.94;;;12.79;69.17
66945;BME280;53853;51.982;5.928;2023-06-01T00:41:57;102286.84;;;12.76;69.04
66945;BME280;53853;51.982;5.928;2023-06-01T00:44:31;102285.41;;;12.72;69.03
66945;BME280;53853;51.982;5.928;2023-06-01T00:47:01;102289.47;;;12.66;69.36
66945;BME280;53853;51.982;5.928;2023-06-01T00:49:31;102288.84;;;12.62;69.53
66945;BME280;53853;51.982;5.928;2023-06-01T00:52:01;102296.03;;;12.62;69.70
66945;BME280;53853;51.982;5.928;2023-06-01T00:54:31;102295.19;;;12.61;69.72
66945;BME280;53853;51.982;5.928;2023-06-01T00:57:02;102285.47;;;12.60;69.29
66945;BME280;53853;51.982;5.928;2023-06-01T00:59:35;102292.63;;;12.60;69.36
66945;BME280;53853;51.982;5.928;2023-06-01T01:02:06;102290.09;;;12.58;69.56
66945;BME280;53853;51.982;5.928;2023-06-01T01:04:36;102298.00;;;12.60;69.38
66945;BME280;53853;51.982;5.928;2023-06-01T01:07:13;102301.63;;;12.59;69.54
66945;BME280;53853;51.982;5.928;2023-06-01T01:09:53;102299.81;;;12.59;69.41
66945;BME280;53853;51.982;5.928;2023-06-01T01:12:30;102301.63;;;12.59;69.83
66945;BME280;53853;51.982;5.928;2023-06-01T01:15:08;102302.00;;;12.54;69.81
66945;BME280;53853;51.982;5.928;2023-06-01T01:17:44;102301.28;;;12.52;69.84
66945;BME280;53853;51.982;5.928;2023-06-01T01:20:24;102293.03;;;12.55;69.74
66945;BME280;53853;51.982;5.928;2023-06-01T01:23:15;102292.06;;;12.56;69.55
66945;BME280;53853;51.982;5.928;2023-06-01T01:26:13;102291.94;;;12.58;69.56
66945;BME280;53853;51.982;5.928;2023-06-01T01:28:48;102297.53;;;12.55;69.75
66945;BME280;53853;51.982;5.928;2023-06-01T01:31:22;102285.59;;;12.59;69.64
66945;BME280;53853;51.982;5.928;2023-06-01T01:33:55;102291.66;;;12.61;69.69
66945;BME280;53853;51.982;5.928;2023-06-01T01:36:26;102290.94;;;12.59;69.73
66945;BME280;53853;51.982;5.928;2023-06-01T01:38:57;102286.47;;;12.59;69.78
66945;BME280;53853;51.982;5.928;2023-06-01T01:41:27;102292.91;;;12.57;69.88
66945;BME280;53853;51.982;5.928;2023-06-01T01:44:00;102290.09;;;12.58;70.01
66945;BME280;53853;51.982;5.928;2023-06-01T01:46:32;102287.28;;;12.60;69.66
66945;BME280;53853;51.982;5.928;2023-06-01T01:49:11;102287.16;;;12.61;69.88
66945;BME280;53853;51.982;5.928;2023-06-01T01:51:46;102291.25;;;12.65;69.68
66945;BME280;53853;51.982;5.928;2023-06-01T01:54:19;102290.88;;;12.70;69.87
66945;BME280;53853;51.982;5.928;2023-06-01T01:56:49;102281.91;;;12.71;69.51
66945;BME280;53853;51.982;5.928;2023-06-01T01:59:22;102286.03;;;12.75;69.13
66945;BME280;53853;51.982;5.928;2023-06-01T02:01:53;102286.41;;;12.71;69.60
66945;BME280;53853;51.982;5.928;2023-06-01T02:04:24;102281.56;;;12.64;69.61
66945;BME280;53853;51.982;5.928;2023-06-01T02:06:53;102288.72;;;12.64;69.46
66945;BME280;53853;51.982;5.928;2023-06-01T02:09:24;102287.28;;;12.60;69.34
66945;BME280;53853;51.982;5.928;2023-06-01T02:11:54;102287.81;;;12.54;69.34
66945;BME280;53853;51.982;5.928;2023-06-01T02:14:26;102283.41;;;12.53;69.30
66945;BME280;53853;51.982;5.928;2023-06-01T02:16:56;102290.59;;;12.52;69.11
66945;BME280;53853;51.982;5.928;2023-06-01T02:19:27;102286.97;;;12.53;69.38
66945;BME280;53853;51.982;5.928;2023-06-01T02:21:57;102282.69;;;12.50;69.04
66945;BME280;53853;51.982;5.928;2023-06-01T02:24:27;102280.16;;;12.49;69.37
66945;BME280;53853;51.982;5.928;2023-06-01T02:26:57;102283.91;;;12.46;69.29
66945;BME280;53853;51.982;5.928;2023-06-01T02:29:30;102280.41;;;12.46;69.15
66945;BME280;53853;51.982;5.928;2023-06-01T02:32:00;102284.78;;;12.47;69.12
66945;BME280;53853;51.982;5.928;2023-06-01T02:34:29;102281.13;;;12.48;69.11
66945;BME280;53853;51.982;5.928;2023-06-01T02:36:59;102279.19;;;12.50;68.85
66945;BME280;53853;51.982;5.928;2023-06-01T02:39:29;102273.09;;;12.48;68.81
66945;BME280;53853;51.982;5.928;2023-06-01T02:41:59;102279.31;;;12.48;69.05
66945;BME280;53853;51.982;5.928;2023-06-01T02:44:31;102279.31;;;12.48;68.96
66945;BME280;53853;51.982;5.928;2023-06-01T02:47:01;102274.94;;;12.47;68.98
66945;BME280;53853;51.982;5.928;2023-06-01T02:49:32;102280.16;;;12.49;68.56
66945;BME280;53853;51.982;5.928;2023-06-01T02:52:02;102279.19;;;12.50;68.58
66945;BME280;53853;51.982;5.928;2023-06-01T02:54:32;102274.69;;;12.50;68.70
66945;BME280;53853;51.982;5.928;2023-06-01T02:57:12;102282.13;;;12.47;68.78
66945;BME280;53853;51.982;5.928;2023-06-01T02:59:51;102281.63;;;12.42;68.83
66945;BME280;53853;51.982;5.928;2023-06-01T03:02:21;102282.03;;;12.37;69.03
66945;BME280;53853;51.982;5.928;2023-06-01T03:04:53;102279.47;;;12.36;69.00
66945;BME280;53853;51.982;5.928;2023-06-01T03:07:22;102278.63;;;12.35;69.01
66945;BME280;53853;51.982;5.928;2023-06-01T03:09:55;102273.25;;;12.35;68.80
66945;BME280;53853;51.982;5.928;2023-06-01T03:12:47;102271.09;;;12.29;69.10
66945;BME280;53853;51.982;5.928;2023-06-01T03:15:20;102275.34;;;12.31;69.03
66945;BME280;53853;51.982;5.928;2023-06-01T03:17:50;102277.66;;;12.36;69.24
66945;BME280;53853;51.982;5.928;2023-06-01T03:20:20;102277.53;;;12.38;69.17
66945;BME280;53853;51.982;5.928;2023-06-01T03:22:50;102276.44;;;12.40;68.95
66945;BME280;53853;51.982;5.928;2023-06-01T03:25:20;102277.03;;;12.44;68.77
66945;BME280;53853;51.982;5.928;2023-06-01T03:27:52;102280.66;;;12.43;68.81
66945;BME280;53853;51.982;5.928;2023-06-01T03:30:25;102275.56;;;12.40;69.05
66945;BME280;53853;51.982;5.928;2023-06-01T03:32:55;102271.34;;;12.37;68.93
66945;BME280;53853;51.982;5.928;2023-06-01T03:35:25;102273.00;;;12.38;68.82
66945;BME280;53853;51.982;5.928;2023-06-01T03:37:55;102260.41;;;12.40;68.82
66945;BME280;53853;51.982;5.928;2023-06-01T03:40:25;102265.59;;;12.42;68.86
66945;BME280;53853;51.982;5.928;2023-06-01T03:42:55;102271.69;;;12.44;68.84
66945;BME280;53853;51.982;5.928;2023-06-01T03:45:28;102263.28;;;12.48;68.68
66945;BME280;53853;51.982;5.928;2023-06-01T03:47:58;102272.72;;;12.53;68.49
66945;BME280;53853;51.982;5.928;2023-06-01T03:50:27;102264.25;;;12.47;68.51
66945;BME280;53853;51.982;5.928;2023-06-01T03:53:00;102269.72;;;12.46;68.62
66945;BME280;53853;51.982;5.928;2023-06-01T03:55:31;102274.22;;;12.45;68.65
66945;BME280;53853;51.982;5.928;2023-06-01T03:58:10;102262.53;;;12.46;68.51
66945;BME280;53853;51.982;5.928;2023-06-01T04:00:43;102269.72;;;12.46;68.57
66945;BME280;53853;51.982;5.928;2023-06-01T04:03:14;102277.84;;;12.44;68.38
66945;BME280;53853;51.982;5.928;2023-06-01T04:05:48;102268.25;;;12.42;68.47
66945;BME280;53853;51.982;5.928;2023-06-01T04:08:25;102274.13;;;12.36;68.61
66945;BME280;53853;51.982;5.928;2023-06-01T04:10:59;102268.53;;;12.39;68.67
66945;BME280;53853;51.982;5.928;2023-06-01T04:13:28;102268.25;;;12.42;68.50
66945;BME280;53853;51.982;5.928;2023-06-01T04:16:01;102271.22;;;12.39;68.58
66945;BME280;53853;51.982;5.928;2023-06-01T04:18:32;102270.81;;;12.43;68.39
66945;BME280;53853;51.982;5.928;2023-06-01T04:21:02;102267.16;;;12.44;68.37
66945;BME280;53853;51.982;5.928;2023-06-01T04:23:33;102270.31;;;12.49;68.16
66945;BME280;53853;51.982;5.928;2023-06-01T04:26:04;102262.16;;;12.51;68.31
66945;BME280;53853;51.982;5.928;2023-06-01T04:28:35;102259.97;;;12.56;68.26
66945;BME280;53853;51.982;5.928;2023-06-01T04:31:14;102270.13;;;12.62;68.04
66945;BME280;53853;51.982;5.928;2023-06-01T04:33:48;102267.31;;;12.64;67.82
66945;BME280;53853;51.982;5.928;2023-06-01T04:36:20;102273.28;;;12.67;67.86
66945;BME280;53853;51.982;5.928;2023-06-01T04:38:54;102273.03;;;12.71;67.64
66945;BME280;53853;51.982;5.928;2023-06-01T04:41:24;102271.91;;;12.73;67.61
66945;BME280;53853;51.982;5.928;2023-06-01T04:43:56;102271.66;;;12.76;67.57
66945;BME280;53853;51.982;5.928;2023-06-01T04:46:29;102279.53;;;12.78;67.70
66945;BME280;53853;51.982;5.928;2023-06-01T04:49:00;102278.44;;;12.80;67.59
66945;BME280;53853;51.982;5.928;2023-06-01T04:51:31;102274.06;;;12.79;67.74
66945;BME280;53853;51.982;5.928;2023-06-01T04:54:03;102275.13;;;12.88;67.66
66945;BME280;53853;51.982;5.928;2023-06-01T04:56:34;102281.56;;;12.85;67.06
66945;BME280;53853;51.982;5.928;2023-06-01T04:59:05;102283.28;;;12.86;67.17
66945;BME280;53853;51.982;5.928;2023-06-01T05:01:38;102282.03;;;12.91;66.86
66945;BME280;53853;51.982;5.928;2023-06-01T05:04:08;102285.31;;;12.94;67.17
66945;BME280;53853;51.982;5.928;2023-06-01T05:06:38;102278.38;;;12.92;66.70
66945;BME280;53853;51.982;5.928;2023-06-01T05:09:07;102284.31;;;12.95;66.68
66945;BME280;53853;51.982;5.928;2023-06-01T05:11:37;102284.50;;;13.03;66.54
66945;BME280;53853;51.982;5.928;2023-06-01T05:14:07;102287.53;;;13.10;66.55
66945;BME280;53853;51.982;5.928;2023-06-01T05:16:40;102286.84;;;13.18;66.25
66945;BME280;53853;51.982;5.928;2023-06-01T05:19:10;102289.00;;;13.24;66.03
66945;BME280;53853;51.982;5.928;2023-06-01T05:21:42;102281.72;;;13.26;65.67
66945;BME280;53853;51.982;5.928;2023-06-01T05:24:14;102280.72;;;13.27;65.23
66945;BME280;53853;51.982;5.928;2023-06-01T05:26:43;102288.50;;;13.30;65.44
66945;BME280;53853;51.982;5.928;2023-06-01T05:29:13;102286.44;;;13.34;65.13
66945;BME280;53853;51.982;5.928;2023-06-01T05:31:46;102290.19;;;13.31;65.02
66945;BME280;53853;51.982;5.928;2023-06-01T05:34:16;102291.69;;;13.24;64.93
66945;BME280;53853;51.982;5.928;2023-06-01T05:36:46;102278.78;;;13.29;65.03
66945;BME280;53853;51.982;5.928;2023-06-01T05:39:16;102290.09;;;13.33;65.07
66945;BME280;53853;51.982;5.928;2023-06-01T05:41:46;102283.09;;;13.41;65.04
66945;BME280;53853;51.982;5.928;2023-06-01T05:44:16;102286.22;;;13.47;64.86
66945;BME280;53853;51.982;5.928;2023-06-01T05:46:49;102292.72;;;13.54;64.62
66945;BME280;53853;51.982;5.928;2023-06-01T05:49:20;102290.38;;;13.61;64.45
66945;BME280;53853;51.982;5.928;2023-06-01T05:51:50;102289.00;;;13.66;64.44
66945;BME280;53853;51.982;5.928;2023-06-01T05:54:20;102301.16;;;13.70;64.09
66945;BME280;53853;51.982;5.928;2023-06-01T05:56:50;102294.78;;;13.71;64.04
66945;BME280;53853;51.982;5.928;2023-06-01T05:59:20;102297.06;;;13.76;64.17
66945;BME280;53853;51.982;5.928;2023-06-01T06:01:52;102290.34;;;13.82;63.76
66945;BME280;53853;51.982;5.928;2023-06-01T06:04:23;102301.03;;;13.82;63.37
66945;BME280;53853;51.982;5.928;2023-06-01T06:06:53;102311.88;;;13.70;63.14
66945;BME280;53853;51.982;5.928;2023-06-01T06:09:22;102301.41;;;13.67;63.13
66945;BME280;53853;51.982;5.928;2023-06-01T06:11:52;102301.41;;;13.67;62.97
66945;BME280;53853;51.982;5.928;2023-06-01T06:14:22;102297.06;;;13.76;62.98
66945;BME280;53853;51.982;5.928;2023-06-01T06:16:55;102292.75;;;13.85;62.76
66945;BME280;53853;51.982;5.928;2023-06-01T06:19:24;102292.91;;;13.93;63.01
66945;BME280;53853;51.982;5.928;2023-06-01T06:21:54;102292.94;;;14.03;62.99
66945;BME280;53853;51.982;5.928;2023-06-01T06:24:24;102293.66;;;14.14;62.75
66945;BME280;53853;51.982;5.928;2023-06-01T06:26:54;102299.34;;;14.21;62.27
66945;BME280;53853;51.982;5.928;2023-06-01T06:29:24;102297.50;;;14.22;62.04
66945;BME280;53853;51.982;5.928;2023-06-01T06:31:56;102292.69;;;14.25;61.61
66945;BME280;53853;51.982;5.928;2023-06-01T06:34:26;102289.72;;;14.19;61.42
66945;BME280;53853;51.982;5.928;2023-06-01T06:37:03;102296.50;;;14.23;61.96
66945;BME280;53853;51.982;5.928;2023-06-01T06:39:33;102289.44;;;14.22;61.58
66945;BME280;53853;51.982;5.928;2023-06-01T06:42:05;102288.75;;;14.20;61.47
66945;BME280;53853;51.982;5.928;2023-06-01T06:44:35;102290.41;;;14.21;61.47
66945;BME280;53853;51.982;5.928;2023-06-01T06:47:07;102295.09;;;14.28;61.50
66945;BME280;53853;51.982;5.928;2023-06-01T06:49:41;102295.84;;;14.40;61.21
66945;BME280;53853;51.982;5.928;2023-06-01T06:52:11;102291.88;;;14.54;61.30
66945;BME280;53853;51.982;5.928;2023-06-01T06:54:41;102290.22;;;14.63;60.81
66945;BME280;53853;51.982;5.928;2023-06-01T06:57:11;102296.28;;;14.65;60.16
66945;BME280;53853;51.982;5.928;2023-06-01T06:59:41;102304.91;;;14.68;60.23
66945;BME280;53853;51.982;5.928;2023-06-01T07:02:13;102300.69;;;14.76;59.94
66945;BME280;53853;51.982;5.928;2023-06-01T07:04:43;102303.91;;;14.79;59.64
66945;BME280;53853;51.982;5.928;2023-06-01T07:07:13;102303.78;;;14.81;59.59
66945;BME280;53853;51.982;5.928;2023-06-01T07:09:43;102297.69;;;14.89;59.96
66945;BME280;53853;51.982;5.928;2023-06-01T07:12:13;102307.59;;;14.88;58.84
66945;BME280;53853;51.982;5.928;2023-06-01T07:14:43;102304.94;;;14.78;58.54
66945;BME280;53853;51.982;5.928;2023-06-01T07:17:15;102293.06;;;14.61;58.72
66945;BME280;53853;51.982;5.928;2023-06-01T07:19:45;102297.66;;;14.49;59.24
66945;BME280;53853;51.982;5.928;2023-06-01T07:22:15;102301.19;;;14.40;59.58
66945;BME280;53853;51.982;5.928;2023-06-01T07:24:45;102302.75;;;14.43;60.00
66945;BME280;53853;51.982;5.928;2023-06-01T07:27:15;102294.28;;;14.57;60.16
66945;BME280;53853;51.982;5.928;2023-06-01T07:29:46;102297.44;;;14.82;60.31
66945;BME280;53853;51.982;5.928;2023-06-01T07:32:24;102289.91;;;15.05;59.21
66945;BME280;53853;51.982;5.928;2023-06-01T07:34:54;102282.66;;;15.25;59.57
66945;BME280;53853;51.982;5.928;2023-06-01T07:37:24;102288.69;;;15.47;58.56
66945;BME280;53853;51.982;5.928;2023-06-01T07:39:54;102291.72;;;15.62;58.07
66945;BME280;53853;51.982;5.928;2023-06-01T07:42:24;102287.34;;;15.70;58.22
66945;BME280;53853;51.982;5.928;2023-06-01T07:44:55;102288.59;;;15.66;56.11
66945;BME280;53853;51.982;5.928;2023-06-01T07:47:28;102285.09;;;15.66;56.66
66945;BME280;53853;51.982;5.928;2023-06-01T07:49:58;102288.06;;;15.63;56.54
66945;BME280;53853;51.982;5.928;2023-06-01T07:52:28;102284.13;;;15.57;56.39
66945;BME280;53853;51.982;5.928;2023-06-01T07:54:57;102283.13;;;15.58;56.90
66945;BME280;53853;51.982;5.928;2023-06-01T07:57:27;102290.47;;;15.66;56.91
66945;BME280;53853;51.982;5.928;2023-06-01T07:59:57;102284.06;;;15.67;56.00
66945;BME280;53853;51.982;5.928;2023-06-01T08:02:30;102278.75;;;15.57;56.70
66945;BME280;53853;51.982;5.928;2023-06-01T08:05:00;102281.56;;;15.55;56.96
66945;BME280;53853;51.982;5.928;2023-06-01T08:07:30;102283.97;;;15.58;56.97
66945;BME280;53853;51.982;5.928;2023-06-01T08:10:00;102274.63;;;15.63;57.12
66945;BME280;53853;51.982;5.928;2023-06-01T08:12:29;102268.78;;;15.77;56.66
66945;BME280;53853;51.982;5.928;2023-06-01T08:14:59;102273.72;;;15.82;56.47
66945;BME280;53853;51.982;5.928;2023-06-01T08:17:33;102273.19;;;15.78;56.02
66945;BME280;53853;51.982;5.928;2023-06-01T08:20:05;102271.50;;;15.67;56.22
66945;BME280;53853;51.982;5.928;2023-06-01T08:22:37;102269.94;;;15.65;57.00
66945;BME280;53853;51.982;5.928;2023-06-01T08:25:08;102277.28;;;15.72;56.61
66945;BME280;53853;51.982;5.928;2023-06-01T08:27:38;102263.59;;;15.66;55.70
66945;BME280;53853;51.982;5.928;2023-06-01T08:30:09;102271.66;;;15.66;56.32
66945;BME280;53853;51.982;5.928;2023-06-01T08:32:42;102260.50;;;15.61;56.21
66945;BME280;53853;51.982;5.928;2023-06-01T08:35:11;102264.72;;;15.63;56.34
66945;BME280;53853;51.982;5.928;2023-06-01T08:37:42;102263.28;;;15.69;55.85
66945;BME280;53853;51.982;5.928;2023-06-01T08:40:12;102253.91;;;15.73;55.71
66945;BME280;53853;51.982;5.928;2023-06-01T08:42:48;102250.25;;;15.74;56.01
66945;BME280;53853;51.982;5.928;2023-06-01T08:45:19;102254.75;;;15.83;56.49
66945;BME280;53853;51.982;5.928;2023-06-01T08:47:53;102260.22;;;15.91;56.60
66945;BME280;53853;51.982;5.928;2023-06-01T08:50:25;102252.84;;;15.93;55.41
66945;BME280;53853;51.982;5.928;2023-06-01T08:52:57;102250.53;;;15.99;55.69
66945;BME280;53853;51.982;5.928;2023-06-01T08:55:29;102253.66;;;16.04;55.74
66945;BME280;53853;51.982;5.928;2023-06-01T08:57:59;102249.78;;;16.06;55.67
66945;BME280;53853;51.982;5.928;2023-06-01T09:00:30;102243.81;;;16.12;55.88
66945;BME280;53853;51.982;5.928;2023-06-01T09:03:03;102238.50;;;16.21;55.66
66945;BME280;53853;51.982;5.928;2023-06-01T09:05:33;102238.78;;;16.27;55.96
66945;BME280;53853;51.982;5.928;2023-06-01T09:08:03;102244.22;;;16.36;55.10
66945;BME280;53853;51.982;5.928;2023-06-01T09:10:34;102236.53;;;16.41;55.00
66945;BME280;53853;51.982;5.928;2023-06-01T09:13:04;102228.84;;;16.46;53.98
66945;BME280;53853;51.982;5.928;2023-06-01T09:15:34;102234.66;;;16.41;54.61
66945;BME280;53853;51.982;5.928;2023-06-01T09:18:08;102226.59;;;16.41;54.47
66945;BME280;53853;51.982;5.928;2023-06-01T09:20:41;102230.38;;;16.48;54.48
66945;BME280;53853;51.982;5.928;2023-06-01T09:23:11;102230.91;;;16.52;54.35
66945;BME280;53853;51.982;5.928;2023-06-01T09:26:04;102221.38;;;16.58;52.41
66945;BME280;53853;51.982;5.928;2023-06-01T09:28:53;102241.72;;;16.60;53.12
66945;BME280;53853;51.982;5.928;2023-06-01T09:31:39;102221.53;;;16.56;52.36
66945;BME280;53853;51.982;5.928;2023-06-01T09:34:16;102215.13;;;16.57;52.70
66945;BME280;53853;51.982;5.928;2023-06-01T09:36:47;102212.44;;;16.57;52.88
66945;BME280;53853;51.982;5.928;2023-06-01T09:39:18;102204.59;;;16.64;53.28
66945;BME280;53853;51.982;5.928;2023-06-01T09:41:51;102209.06;;;16.73;53.99
66945;BME280;53853;51.982;5.928;2023-06-01T09:44:26;102209.63;;;16.85;52.60
66945;BME280;53853;51.982;5.928;2023-06-01T09:46:57;102205.34;;;16.92;53.45
66945;BME280;53853;51.982;5.928;2023-06-01T09:49:31;102215.00;;;17.03;52.83
66945;BME280;53853;51.982;5.928;2023-06-01T09:52:08;102219.91;;;17.08;52.45
66945;BME280;53853;51.982;5.928;2023-06-01T09:54:43;102209.13;;;17.08;52.30
66945;BME280;53853;51.982;5.928;2023-06-01T09:57:14;102199.06;;;17.10;52.36
66945;BME280;53853;51.982;5.928;2023-06-01T09:59:48;102196.25;;;17.19;52.12
66945;BME280;53853;51.982;5.928;2023-06-01T10:02:20;102194.41;;;17.28;52.26
66945;BME280;53853;51.982;5.928;2023-06-01T10:04:55;102197.47;;;17.33;52.12
66945;BME280;53853;51.982;5.928;2023-06-01T10:07:28;102199.53;;;17.39;51.58
66945;BME280;53853;51.982;5.928;2023-06-01T10:10:00;102195.34;;;17.45;51.47
66945;BME280;53853;51.982;5.928;2023-06-01T10:12:32;102186.94;;;17.48;51.89
66945;BME280;53853;51.982;5.928;2023-06-01T10:15:02;102195.38;;;17.53;52.03
66945;BME280;53853;51.982;5.928;2023-06-01T10:17:33;102190.34;;;17.59;51.99
66945;BME280;53853;51.982;5.928;2023-06-01T10:20:10;102196.78;;;17.66;51.74
66945;BME280;53853;51.982;5.928;2023-06-01T10:22:42;102184.81;;;17.68;51.84
66945;BME280;53853;51.982;5.928;2023-06-01T10:25:14;102181.44;;;17.74;51.64
66945;BME280;53853;51.982;5.928;2023-06-01T10:27:55;102188.56;;;17.84;51.60
66945;BME280;53853;51.982;5.928;2023-06-01T10:30:27;102183.53;;;17.89;51.27
66945;BME280;53853;51.982;5.928;2023-06-01T10:32:57;102186.44;;;17.96;51.60
66945;BME280;53853;51.982;5.928;2023-06-01T10:38:32;102189.81;;;18.06;51.31
66945;BME280;53853;51.982;5.928;2023-06-01T10:41:25;102182.44;;;18.16;51.37
66945;BME280;53853;51.982;5.928;2023-06-01T10:43:57;102189.69;;;18.24;50.54
66945;BME280;53853;51.982;5.928;2023-06-01T10:46:43;102180.22;;;18.28;50.63
66945;BME280;53853;51.982;5.928;2023-06-01T10:49:13;102174.50;;;18.31;50.62
66945;BME280;53853;51.982;5.928;2023-06-01T10:51:42;102174.31;;;18.33;49.70
66945;BME280;53853;51.982;5.928;2023-06-01T10:54:31;102175.53;;;18.38;50.01
66945;BME280;53853;51.982;5.928;2023-06-01T10:57:22;102168.75;;;18.42;50.02
66945;BME280;53853;51.982;5.928;2023-06-01T11:00:11;102189.69;;;18.49;49.53
66945;BME280;53853;51.982;5.928;2023-06-01T11:02:54;102173.47;;;18.49;49.75
66945;BME280;53853;51.982;5.928;2023-06-01T11:05:40;102165.38;;;18.57;50.26
66945;BME280;53853;51.982;5.928;2023-06-01T11:11:12;102154.91;;;18.70;49.22
66945;BME280;53853;51.982;5.928;2023-06-01T11:13:43;102155.06;;;18.77;49.12
66945;BME280;53853;51.982;5.928;2023-06-01T11:16:29;102151.34;;;18.86;48.32
66945;BME280;53853;51.982;5.928;2023-06-01T11:19:00;102152.00;;;18.88;47.12
66945;BME280;53853;51.982;5.928;2023-06-01T11:21:33;102149.16;;;18.90;47.41
66945;BME280;53853;51.982;5.928;2023-06-01T11:24:09;102149.97;;;18.90;48.03
66945;BME280;53853;51.982;5.928;2023-06-01T11:26:43;102151.66;;;18.99;47.72
66945;BME280;53853;51.982;5.928;2023-06-01T11:29:15;102144.88;;;19.04;47.58
66945;BME280;53853;51.982;5.928;2023-06-01T11:31:47;102136.44;;;19.07;47.49
66945;BME280;53853;51.982;5.928;2023-06-01T11:34:19;102133.88;;;19.13;47.36
66945;BME280;53853;51.982;5.928;2023-06-01T11:36:50;102134.19;;;19.18;46.86
66945;BME280;53853;51.982;5.928;2023-06-01T11:39:23;102143.69;;;19.14;47.72
66945;BME280;53853;51.982;5.928;2023-06-01T11:42:07;102139.41;;;19.20;48.49
66945;BME280;53853;51.982;5.928;2023-06-01T11:44:40;102124.88;;;19.21;47.41
66945;BME280;53853;51.982;5.928;2023-06-01T11:47:10;102125.56;;;19.23;47.10
66945;BME280;53853;51.982;5.928;2023-06-01T11:49:41;102117.56;;;19.30;46.56
66945;BME280;53853;51.982;5.928;2023-06-01T11:52:14;102125.63;;;19.38;47.19
66945;BME280;53853;51.982;5.928;2023-06-01T11:54:45;102127.28;;;19.47;47.86
66945;BME280;53853;51.982;5.928;2023-06-01T11:57:18;102129.28;;;19.53;47.27
66945;BME280;53853;51.982;5.928;2023-06-01T11:59:49;102127.63;;;19.52;46.62
66945;BME280;53853;51.982;5.928;2023-06-01T12:02:21;102133.16;;;19.59;46.69
66945;BME280;53853;51.982;5.928;2023-06-01T12:04:56;102127.50;;;19.69;45.63
66945;BME280;53853;51.982;5.928;2023-06-01T12:07:26;102117.34;;;19.71;46.58
66945;BME280;53853;51.982;5.928;2023-06-01T12:09:57;102112.25;;;19.76;46.35
66945;BME280;53853;51.982;5.928;2023-06-01T12:12:30;102110.88;;;19.80;45.77
66945;BME280;53853;51.982;5.928;2023-06-01T12:15:04;102107.34;;;19.80;45.58
66945;BME280;53853;51.982;5.928;2023-06-01T12:17:48;102110.00;;;19.88;44.96
66945;BME280;53853;51.982;5.928;2023-06-01T12:20:29;102107.41;;;19.95;45.56
66945;BME280;53853;51.982;5.928;2023-06-01T12:23:00;102104.97;;;20.00;45.67
66945;BME280;53853;51.982;5.928;2023-06-01T12:25:30;102123.88;;;20.08;45.05
66945;BME280;53853;51.982;5.928;2023-06-01T12:28:04;102105.41;;;20.12;44.44
66945;BME280;53853;51.982;5.928;2023-06-01T12:30:35;102106.06;;;20.14;44.43
66945;BME280;53853;51.982;5.928;2023-06-01T12:33:05;102111.75;;;20.19;44.18
66945;BME280;53853;51.982;5.928;2023-06-01T12:35:47;102104.25;;;20.29;44.31
66945;BME280;53853;51.982;5.928;2023-06-01T12:38:18;102109.56;;;20.37;44.43
66945;BME280;53853;51.982;5.928;2023-06-01T12:41:06;102110.34;;;20.46;43.12
66945;BME280;53853;51.982;5.928;2023-06-01T12:43:44;102100.34;;;20.47;42.30
66945;BME280;53853;51.982;5.928;2023-06-01T12:46:18;102108.28;;;20.48;42.12
66945;BME280;53853;51.982;5.928;2023-06-01T12:48:48;102107.06;;;20.51;41.65
66945;BME280;53853;51.982;5.928;2023-06-01T12:51:19;102094.09;;;20.46;42.63
66945;BME280;53853;51.982;5.928;2023-06-01T12:53:49;102103.06;;;20.47;42.79
66945;BME280;53853;51.982;5.928;2023-06-01T12:56:19;102098.66;;;20.45;42.33
66945;BME280;53853;51.982;5.928;2023-06-01T12:58:52;102112.69;;;20.49;42.93
66945;BME280;53853;51.982;5.928;2023-06-01T13:01:22;102104.16;;;20.52;43.67
66945;BME280;53853;51.982;5.928;2023-06-01T13:03:52;102102.41;;;20.59;43.70
66945;BME280;53853;51.982;5.928;2023-06-01T13:06:22;102103.22;;;20.68;43.99
66945;BME280;53853;51.982;5.928;2023-06-01T13:08:52;102101.59;;;20.74;42.93
66945;BME280;53853;51.982;5.928;2023-06-01T13:11:22;102103.31;;;20.75;44.32
66945;BME280;53853;51.982;5.928;2023-06-01T13:13:55;102096.19;;;20.74;43.97
66945;BME280;53853;51.982;5.928;2023-06-01T13:16:25;102097.13;;;20.81;43.04
66945;BME280;53853;51.982;5.928;2023-06-01T13:18:54;102089.94;;;20.73;42.93
66945;BME280;53853;51.982;5.928;2023-06-01T13:21:24;102099.09;;;20.72;43.50
66945;BME280;53853;51.982;5.928;2023-06-01T13:23:54;102088.25;;;20.72;43.35